sensor_id;sensor_type;location;lat;lon;timestamp;pressure;altitude;pressure_sealevel;temperature;humidity
43824;BME280;29470;53.550;9.926;2022-09-02T00:00:54;101835.16;;;15.70;70.74
43824;BME280;29470;53.550;9.926;2022-09-02T00:06:03;101831.53;;;15.55;71.51
43824;BME280;29470;53.550;9.926;2022-09-02T00:11:07;101826.53;;;15.58;72.03
43824;BME280;29470;53.550;9.926;2022-09-02T00:16:13;101818.72;;;15.58;72.16
43824;BME280;29470;53.550;9.926;2022-09-02T00:21:20;101815.38;;;15.47;72.68
43824;BME280;29470;53.550;9.926;2022-09-02T00:26:23;101817.09;;;15.46;73.15
43824;BME280;29470;53.550;9.926;2022-09-02T00:31:27;101815.38;;;15.47;73.30
43824;BME280;29470;53.550;9.926;2022-09-02T00:36:32;101809.75;;;15.41;73.66
43824;BME280;29470;53.550;9.926;2022-09-02T00:41:38;101823.28;;;15.35;73.88
43824;BME280;29470;53.550;9.926;2022-09-02T00:46:41;101827.75;;;15.24;74.03
43824;BME280;29470;53.550;9.926;2022-09-02T00:51:47;101823.25;;;15.22;74.27
43824;BME280;29470;53.550;9.926;2022-09-02T00:56:53;101828.06;;;15.15;74.57
43824;BME280;29470;53.550;9.926;2022-09-02T01:01:56;101827.72;;;15.11;74.63
43824;BME280;29470;53.550;9.926;2022-09-02T01:07:01;101823.69;;;15.02;75.16
43824;BME280;29470;53.550;9.926;2022-09-02T01:12:05;101831.00;;;14.95;75.28
43824;BME280;29470;53.550;9.926;2022-09-02T01:17:08;101816.44;;;14.85;75.63
43824;BME280;29470;53.550;9.926;2022-09-02T01:22:18;101814.63;;;14.84;75.91
43824;BME280;29470;53.550;9.926;2022-09-02T01:27:22;101805.03;;;14.83;75.83
43824;BME280;29470;53.550;9.926;2022-09-02T01:32:26;101810.47;;;14.74;76.16
43824;BME280;29470;53.550;9.926;2022-09-02T01:37:31;101812.88;;;14.71;76.57
43824;BME280;29470;53.550;9.926;2022-09-02T01:42:35;101811.19;;;14.59;77.29
43824;BME280;29470;53.550;9.926;2022-09-02T01:47:38;101802.78;;;14.64;76.87
43824;BME280;29470;53.550;9.926;2022-09-02T01:52:42;101800.09;;;14.62;76.99
43824;BME280;29470;53.550;9.926;2022-09-02T01:57:45;101793.31;;;14.52;77.14
43824;BME280;29470;53.550;9.926;2022-09-02T02:02:49;101798.53;;;14.52;76.80
43824;BME280;29470;53.550;9.926;2022-09-02T02:07:53;101790.50;;;14.49;77.42
43824;BME280;29470;53.550;9.926;2022-09-02T02:13:00;101792.22;;;14.49;77.50
43824;BME280;29470;53.550;9.926;2022-09-02T02:18:07;101787.69;;;14.46;77.71
43824;BME280;29470;53.550;9.926;2022-09-02T02:23:11;101786.69;;;14.44;78.03
43824;BME280;29470;53.550;9.926;2022-09-02T02:28:14;101791.22;;;14.47;77.86
43824;BME280;29470;53.550;9.926;2022-09-02T02:33:18;101786.25;;;14.38;77.68
43824;BME280;29470;53.550;9.926;2022-09-02T02:38:28;101783.00;;;14.28;78.04
43824;BME280;29470;53.550;9.926;2022-09-02T02:43:31;101787.31;;;14.28;78.17
43824;BME280;29470;53.550;9.926;2022-09-02T02:48:35;101775.88;;;14.26;78.28
43824;BME280;29470;53.550;9.926;2022-09-02T02:53:40;101777.41;;;14.10;78.80
43824;BME280;29470;53.550;9.926;2022-09-02T02:58:44;101765.88;;;14.07;78.92
43824;BME280;29470;53.550;9.926;2022-09-02T03:03:48;101772.44;;;14.02;79.27
43824;BME280;29470;53.550;9.926;2022-09-02T03:08:56;101773.03;;;13.97;79.46
43824;BME280;29470;53.550;9.926;2022-09-02T03:14:01;101767.25;;;13.90;79.59
43824;BME280;29470;53.550;9.926;2022-09-02T03:19:06;101772.69;;;13.93;79.74
43824;BME280;29470;53.550;9.926;2022-09-02T03:24:11;101772.34;;;13.88;79.70
43824;BME280;29470;53.550;9.926;2022-09-02T03:29:14;101767.72;;;13.84;79.79
43824;BME280;29470;53.550;9.926;2022-09-02T03:34:18;101763.97;;;13.80;80.13
43824;BME280;29470;53.550;9.926;2022-09-02T03:39:23;101769.09;;;13.79;80.23
43824;BME280;29470;53.550;9.926;2022-09-02T03:44:26;101765.69;;;13.80;80.18
43824;BME280;29470;53.550;9.926;2022-09-02T03:49:29;101762.75;;;13.75;80.41
43824;BME280;29470;53.550;9.926;2022-09-02T03:54:35;101761.63;;;13.72;80.33
43824;BME280;29470;53.550;9.926;2022-09-02T03:59:38;101756.88;;;13.66;80.82
43824;BME280;29470;53.550;9.926;2022-09-02T04:04:41;101753.38;;;13.65;80.91
43824;BME280;29470;53.550;9.926;2022-09-02T04:09:46;101751.22;;;13.60;81.00
43824;BME280;29470;53.550;9.926;2022-09-02T04:14:49;101748.63;;;13.60;81.10
43824;BME280;29470;53.550;9.926;2022-09-02T04:19:58;101753.50;;;13.55;81.40
43824;BME280;29470;53.550;9.926;2022-09-02T04:25:03;101748.88;;;13.51;81.70
43824;BME280;29470;53.550;9.926;2022-09-02T04:30:08;101754.53;;;13.57;81.37
43824;BME280;29470;53.550;9.926;2022-09-02T04:35:14;101757.13;;;13.57;81.29
43824;BME280;29470;53.550;9.926;2022-09-02T04:40:19;101752.81;;;13.58;81.47
43824;BME280;29470;53.550;9.926;2022-09-02T04:45:22;101757.22;;;13.59;81.44
43824;BME280;29470;53.550;9.926;2022-09-02T04:50:31;101758.47;;;13.52;81.50
43824;BME280;29470;53.550;9.926;2022-09-02T04:55:37;101763.69;;;13.52;81.66
43824;BME280;29470;53.550;9.926;2022-09-02T05:00:43;101764.34;;;13.49;81.87
43824;BME280;29470;53.550;9.926;2022-09-02T05:05:57;101768.75;;;13.50;81.86
43824;BME280;29470;53.550;9.926;2022-09-02T05:11:05;101772.34;;;13.52;81.81
43824;BME280;29470;53.550;9.926;2022-09-02T05:16:08;101770.13;;;13.57;81.82
43824;BME280;29470;53.550;9.926;2022-09-02T05:21:11;101767.41;;;13.67;81.39
43824;BME280;29470;53.550;9.926;2022-09-02T05:26:23;101766.03;;;13.73;80.95
43824;BME280;29470;53.550;9.926;2022-09-02T05:31:27;101765.56;;;13.90;80.24
43824;BME280;29470;53.550;9.926;2022-09-02T05:36:31;101768.03;;;13.89;80.09
43824;BME280;29470;53.550;9.926;2022-09-02T05:41:36;101767.91;;;13.99;79.93
43824;BME280;29470;53.550;9.926;2022-09-02T05:46:41;101767.91;;;14.11;79.49
43824;BME280;29470;53.550;9.926;2022-09-02T05:51:52;101773.84;;;14.22;78.20
43824;BME280;29470;53.550;9.926;2022-09-02T05:57:04;101766.59;;;14.29;77.95
43824;BME280;29470;53.550;9.926;2022-09-02T06:02:12;101765.44;;;14.63;77.43
43824;BME280;29470;53.550;9.926;2022-09-02T06:07:17;101765.56;;;14.90;75.94
43824;BME280;29470;53.550;9.926;2022-09-02T06:12:24;101763.50;;;15.11;74.20
43824;BME280;29470;53.550;9.926;2022-09-02T06:17:28;101759.59;;;15.31;73.34
43824;BME280;29470;53.550;9.926;2022-09-02T06:22:31;101759.41;;;15.96;71.01
43824;BME280;29470;53.550;9.926;2022-09-02T06:27:37;101763.50;;;16.62;67.27
43824;BME280;29470;53.550;9.926;2022-09-02T06:32:41;101755.13;;;17.12;65.43
43824;BME280;29470;53.550;9.926;2022-09-02T06:37:51;101757.38;;;18.30;61.22
43824;BME280;29470;53.550;9.926;2022-09-02T06:42:56;101755.53;;;20.02;54.75
43824;BME280;29470;53.550;9.926;2022-09-02T06:48:04;101751.28;;;24.58;42.81
43824;BME280;29470;53.550;9.926;2022-09-02T06:53:12;101739.56;;;27.31;36.47
43824;BME280;29470;53.550;9.926;2022-09-02T06:58:17;101743.47;;;29.05;33.66
43824;BME280;29470;53.550;9.926;2022-09-02T07:03:20;101746.06;;;27.51;35.85
43824;BME280;29470;53.550;9.926;2022-09-02T07:08:39;101736.00;;;27.92;34.87
43824;BME280;29470;53.550;9.926;2022-09-02T07:13:44;101743.50;;;27.03;35.37
43824;BME280;29470;53.550;9.926;2022-09-02T07:18:48;101740.72;;;26.47;37.03
43824;BME280;29470;53.550;9.926;2022-09-02T07:23:52;101734.88;;;27.75;35.44
43824;BME280;29470;53.550;9.926;2022-09-02T07:28:57;101732.16;;;29.37;32.41
43824;BME280;29470;53.550;9.926;2022-09-02T07:34:01;101728.59;;;29.35;32.34
43824;BME280;29470;53.550;9.926;2022-09-02T07:39:07;101731.56;;;27.91;34.86
43824;BME280;29470;53.550;9.926;2022-09-02T07:44:12;101733.84;;;27.62;34.79
43824;BME280;29470;53.550;9.926;2022-09-02T07:49:17;101737.22;;;26.06;37.33
43824;BME280;29470;53.550;9.926;2022-09-02T07:54:26;101729.41;;;26.12;37.66
43824;BME280;29470;53.550;9.926;2022-09-02T07:59:31;101721.41;;;24.95;39.72
43824;BME280;29470;53.550;9.926;2022-09-02T08:04:36;101734.28;;;21.83;46.56
43824;BME280;29470;53.550;9.926;2022-09-02T08:09:41;101728.78;;;20.31;51.95
43824;BME280;29470;53.550;9.926;2022-09-02T08:14:45;101730.38;;;19.52;54.39
43824;BME280;29470;53.550;9.926;2022-09-02T08:19:51;101732.44;;;19.05;55.51
43824;BME280;29470;53.550;9.926;2022-09-02T08:24:55;101733.31;;;18.54;57.08
43824;BME280;29470;53.550;9.926;2022-09-02T08:29:59;101722.66;;;18.67;57.57
43824;BME280;29470;53.550;9.926;2022-09-02T08:35:02;101720.38;;;18.74;57.78
43824;BME280;29470;53.550;9.926;2022-09-02T08:40:07;101715.63;;;18.66;56.74
43824;BME280;29470;53.550;9.926;2022-09-02T08:45:23;101721.88;;;19.03;56.42
43824;BME280;29470;53.550;9.926;2022-09-02T08:50:29;101714.81;;;19.02;56.02
43824;BME280;29470;53.550;9.926;2022-09-02T08:55:38;101718.13;;;19.52;55.12
43824;BME280;29470;53.550;9.926;2022-09-02T09:00:51;101727.75;;;19.52;54.26
43824;BME280;29470;53.550;9.926;2022-09-02T09:06:08;101708.34;;;19.30;54.73
43824;BME280;29470;53.550;9.926;2022-09-02T09:11:15;101713.22;;;19.78;54.24
43824;BME280;29470;53.550;9.926;2022-09-02T09:16:29;101703.22;;;19.69;53.81
43824;BME280;29470;53.550;9.926;2022-09-02T09:21:37;101698.81;;;19.88;52.55
43824;BME280;29470;53.550;9.926;2022-09-02T09:26:42;101693.94;;;19.96;52.59
43824;BME280;29470;53.550;9.926;2022-09-02T09:31:54;101685.34;;;20.18;51.76
43824;BME280;29470;53.550;9.926;2022-09-02T09:36:57;101679.44;;;20.43;51.43
43824;BME280;29470;53.550;9.926;2022-09-02T09:42:03;101687.91;;;20.38;50.95
43824;BME280;29470;53.550;9.926;2022-09-02T09:47:14;101683.72;;;20.41;50.61
43824;BME280;29470;53.550;9.926;2022-09-02T09:52:28;101679.66;;;20.28;50.26
43824;BME280;29470;53.550;9.926;2022-09-02T09:57:33;101672.47;;;20.24;50.65
43824;BME280;29470;53.550;9.926;2022-09-02T10:02:46;101660.22;;;20.25;50.70
43824;BME280;29470;53.550;9.926;2022-09-02T10:07:53;101654.78;;;20.61;49.85
43824;BME280;29470;53.550;9.926;2022-09-02T10:13:25;101645.94;;;20.59;49.72
43824;BME280;29470;53.550;9.926;2022-09-02T10:18:36;101636.81;;;20.29;50.32
43824;BME280;29470;53.550;9.926;2022-09-02T10:23:52;101625.03;;;20.62;48.84
43824;BME280;29470;53.550;9.926;2022-09-02T10:34:41;101624.41;;;20.89;48.23
43824;BME280;29470;53.550;9.926;2022-09-02T10:40:07;101615.00;;;20.94;48.05
43824;BME280;29470;53.550;9.926;2022-09-02T10:45:14;101605.22;;;21.13;48.36
43824;BME280;29470;53.550;9.926;2022-09-02T10:50:25;101603.69;;;20.97;47.51
43824;BME280;29470;53.550;9.926;2022-09-02T10:55:35;101596.88;;;21.02;48.11
43824;BME280;29470;53.550;9.926;2022-09-02T11:00:43;101595.63;;;21.38;46.26
43824;BME280;29470;53.550;9.926;2022-09-02T11:05:53;101590.78;;;21.48;46.60
43824;BME280;29470;53.550;9.926;2022-09-02T11:11:02;101591.19;;;21.59;45.78
43824;BME280;29470;53.550;9.926;2022-09-02T11:16:10;101574.50;;;21.82;45.08
43824;BME280;29470;53.550;9.926;2022-09-02T11:21:28;101576.75;;;21.97;42.99
43824;BME280;29470;53.550;9.926;2022-09-02T11:26:37;101574.94;;;21.94;44.27
43824;BME280;29470;53.550;9.926;2022-09-02T11:31:43;101566.16;;;22.19;43.34
43824;BME280;29470;53.550;9.926;2022-09-02T11:36:51;101564.00;;;22.07;42.51
43824;BME280;29470;53.550;9.926;2022-09-02T11:42:06;101559.19;;;22.21;42.84
43824;BME280;29470;53.550;9.926;2022-09-02T11:52:51;101554.78;;;22.22;42.26
43824;BME280;29470;53.550;9.926;2022-09-02T11:57:59;101553.50;;;22.61;41.14
43824;BME280;29470;53.550;9.926;2022-09-02T12:03:12;101550.50;;;22.50;41.54
43824;BME280;29470;53.550;9.926;2022-09-02T12:09:00;101542.06;;;21.83;42.40
43824;BME280;29470;53.550;9.926;2022-09-02T12:14:05;101529.94;;;22.14;42.50
43824;BME280;29470;53.550;9.926;2022-09-02T12:19:38;101533.69;;;22.20;42.02
43824;BME280;29470;53.550;9.926;2022-09-02T12:24:49;101525.66;;;22.43;41.57
43824;BME280;29470;53.550;9.926;2022-09-02T12:29:54;101519.56;;;22.72;39.74
43824;BME280;29470;53.550;9.926;2022-09-02T12:35:08;101523.69;;;22.91;39.80
43824;BME280;29470;53.550;9.926;2022-09-02T12:40:17;101512.72;;;23.07;41.10
43824;BME280;29470;53.550;9.926;2022-09-02T12:45:24;101514.38;;;23.04;40.06
43824;BME280;29470;53.550;9.926;2022-09-02T12:50:31;101506.06;;;22.90;40.31
43824;BME280;29470;53.550;9.926;2022-09-02T12:55:39;101511.72;;;22.73;40.55
43824;BME280;29470;53.550;9.926;2022-09-02T13:00:55;101501.25;;;22.76;40.18
43824;BME280;29470;53.550;9.926;2022-09-02T13:06:02;101496.03;;;22.78;40.07
43824;BME280;29470;53.550;9.926;2022-09-02T13:17:17;101487.72;;;22.38;39.77
43824;BME280;29470;53.550;9.926;2022-09-02T13:22:51;101480.69;;;22.39;40.39
43824;BME280;29470;53.550;9.926;2022-09-02T13:28:39;101482.72;;;22.46;40.80
43824;BME280;29470;53.550;9.926;2022-09-02T13:33:57;101474.78;;;22.44;40.24
43824;BME280;29470;53.550;9.926;2022-09-02T13:39:12;101472.34;;;22.79;39.17
43824;BME280;29470;53.550;9.926;2022-09-02T13:44:22;101454.69;;;23.07;39.11
43824;BME280;29470;53.550;9.926;2022-09-02T13:49:29;101449.19;;;23.29;38.34
43824;BME280;29470;53.550;9.926;2022-09-02T13:54:39;101445.31;;;23.17;38.73
43824;BME280;29470;53.550;9.926;2022-09-02T13:59:48;101431.31;;;23.52;38.51
43824;BME280;29470;53.550;9.926;2022-09-02T14:04:55;101428.84;;;22.95;38.78
43824;BME280;29470;53.550;9.926;2022-09-02T14:10:00;101422.75;;;22.98;38.50
43824;BME280;29470;53.550;9.926;2022-09-02T14:15:08;101414.47;;;23.47;37.10
43824;BME280;29470;53.550;9.926;2022-09-02T14:20:17;101414.78;;;23.59;36.97
43824;BME280;29470;53.550;9.926;2022-09-02T14:25:22;101404.38;;;23.65;36.70
43824;BME280;29470;53.550;9.926;2022-09-02T14:30:32;101408.31;;;23.48;37.51
43824;BME280;29470;53.550;9.926;2022-09-02T14:35:36;101409.84;;;23.38;37.60
43824;BME280;29470;53.550;9.926;2022-09-02T14:40:41;101405.97;;;22.94;38.06
43824;BME280;29470;53.550;9.926;2022-09-02T14:45:48;101398.34;;;22.73;38.71
43824;BME280;29470;53.550;9.926;2022-09-02T14:50:57;101394.94;;;23.09;38.88
43824;BME280;29470;53.550;9.926;2022-09-02T14:56:04;101402.97;;;23.45;37.40
43824;BME280;29470;53.550;9.926;2022-09-02T15:01:09;101405.75;;;23.49;36.61
43824;BME280;29470;53.550;9.926;2022-09-02T15:06:13;101403.56;;;23.34;36.51
43824;BME280;29470;53.550;9.926;2022-09-02T15:11:16;101404.16;;;23.24;37.45
43824;BME280;29470;53.550;9.926;2022-09-02T15:16:23;101402.38;;;23.23;38.21
43824;BME280;29470;53.550;9.926;2022-09-02T15:21:26;101396.72;;;23.10;37.74
43824;BME280;29470;53.550;9.926;2022-09-02T15:26:30;101390.50;;;23.07;37.36
43824;BME280;29470;53.550;9.926;2022-09-02T15:31:41;101386.28;;;22.53;38.44
43824;BME280;29470;53.550;9.926;2022-09-02T15:36:50;101384.78;;;22.33;39.49
43824;BME280;29470;53.550;9.926;2022-09-02T15:41:55;101378.47;;;22.28;39.54
43824;BME280;29470;53.550;9.926;2022-09-02T15:47:00;101388.34;;;22.35;38.54
43824;BME280;29470;53.550;9.926;2022-09-02T15:52:05;101380.41;;;22.34;38.97
43824;BME280;29470;53.550;9.926;2022-09-02T15:57:16;101374.97;;;22.28;38.63
43824;BME280;29470;53.550;9.926;2022-09-02T16:02:38;101368.97;;;22.04;38.40
43824;BME280;29470;53.550;9.926;2022-09-02T16:07:47;101374.50;;;22.14;38.77
43824;BME280;29470;53.550;9.926;2022-09-02T16:13:19;101375.59;;;22.20;39.74
43824;BME280;29470;53.550;9.926;2022-09-02T16:24:21;101365.44;;;22.04;38.90
43824;BME280;29470;53.550;9.926;2022-09-02T16:29:47;101361.72;;;21.97;39.03
43824;BME280;29470;53.550;9.926;2022-09-02T16:35:03;101347.00;;;22.04;39.07
43824;BME280;29470;53.550;9.926;2022-09-02T16:40:08;101347.84;;;22.03;39.49
43824;BME280;29470;53.550;9.926;2022-09-02T16:45:22;101345.56;;;21.86;39.67
43824;BME280;29470;53.550;9.926;2022-09-02T16:50:30;101340.00;;;21.77;38.95
43824;BME280;29470;53.550;9.926;2022-09-02T16:55:53;101334.41;;;21.68;39.00
43824;BME280;29470;53.550;9.926;2022-09-02T17:00:58;101332.53;;;21.63;39.71
43824;BME280;29470;53.550;9.926;2022-09-02T17:06:16;101337.56;;;21.57;39.72
43824;BME280;29470;53.550;9.926;2022-09-02T17:11:28;101323.41;;;21.54;40.18
43824;BME280;29470;53.550;9.926;2022-09-02T17:16:34;101329.94;;;21.39;40.74
43824;BME280;29470;53.550;9.926;2022-09-02T17:21:40;101332.47;;;21.36;39.90
43824;BME280;29470;53.550;9.926;2022-09-02T17:26:46;101329.53;;;21.27;41.34
43824;BME280;29470;53.550;9.926;2022-09-02T17:31:51;101333.25;;;21.08;42.13
43824;BME280;29470;53.550;9.926;2022-09-02T17:36:54;101335.69;;;21.03;41.73
43824;BME280;29470;53.550;9.926;2022-09-02T17:41:59;101333.44;;;20.88;41.87
43824;BME280;29470;53.550;9.926;2022-09-02T17:47:04;101330.72;;;20.86;42.11
43824;BME280;29470;53.550;9.926;2022-09-02T17:52:10;101335.94;;;20.85;42.75
43824;BME280;29470;53.550;9.926;2022-09-02T17:57:36;101339.56;;;20.66;42.87
43824;BME280;29470;53.550;9.926;2022-09-02T18:02:59;101335.00;;;20.60;42.76
43824;BME280;29470;53.550;9.926;2022-09-02T18:08:24;101339.94;;;20.52;42.91
43824;BME280;29470;53.550;9.926;2022-09-02T18:13:38;101346.94;;;20.52;43.55
43824;BME280;29470;53.550;9.926;2022-09-02T18:18:51;101352.69;;;20.41;43.79
43824;BME280;29470;53.550;9.926;2022-09-02T18:24:04;101353.31;;;20.36;44.35
43824;BME280;29470;53.550;9.926;2022-09-02T18:29:26;101360.78;;;20.25;45.07
43824;BME280;29470;53.550;9.926;2022-09-02T18:34:43;101367.72;;;20.23;45.22
43824;BME280;29470;53.550;9.926;2022-09-02T18:40:03;101356.72;;;20.10;45.85
43824;BME280;29470;53.550;9.926;2022-09-02T18:45:14;101371.78;;;20.14;45.98
43824;BME280;29470;53.550;9.926;2022-09-02T18:50:24;101364.56;;;20.09;46.11
43824;BME280;29470;53.550;9.926;2022-09-02T18:55:52;101360.47;;;19.94;46.32
43824;BME280;29470;53.550;9.926;2022-09-02T19:01:02;101377.81;;;19.91;46.18
43824;BME280;29470;53.550;9.926;2022-09-02T19:06:16;101378.81;;;19.73;46.48
43824;BME280;29470;53.550;9.926;2022-09-02T19:11:19;101375.44;;;19.76;46.33
43824;BME280;29470;53.550;9.926;2022-09-02T19:16:27;101381.81;;;19.61;46.81
43824;BME280;29470;53.550;9.926;2022-09-02T19:21:33;101377.06;;;19.52;47.17
43824;BME280;29470;53.550;9.926;2022-09-02T19:26:39;101379.50;;;19.48;47.31
43824;BME280;29470;53.550;9.926;2022-09-02T19:31:45;101387.81;;;19.37;47.52
43824;BME280;29470;53.550;9.926;2022-09-02T19:36:50;101397.78;;;19.46;47.74
43824;BME280;29470;53.550;9.926;2022-09-02T19:41:54;101385.69;;;19.28;48.32
43824;BME280;29470;53.550;9.926;2022-09-02T19:46:59;101395.09;;;19.23;48.81
43824;BME280;29470;53.550;9.926;2022-09-02T19:52:22;101395.13;;;19.25;48.86
43824;BME280;29470;53.550;9.926;2022-09-02T19:57:26;101409.34;;;19.10;49.18
43824;BME280;29470;53.550;9.926;2022-09-02T20:02:30;101408.94;;;19.01;49.81
43824;BME280;29470;53.550;9.926;2022-09-02T20:07:34;101416.06;;;19.04;49.85
43824;BME280;29470;53.550;9.926;2022-09-02T20:12:37;101415.22;;;18.87;50.36
43824;BME280;29470;53.550;9.926;2022-09-02T20:17:44;101412.56;;;18.85;50.98
43824;BME280;29470;53.550;9.926;2022-09-02T20:22:51;101406.88;;;18.76;51.07
43824;BME280;29470;53.550;9.926;2022-09-02T20:28:04;101417.22;;;18.73;51.56
43824;BME280;29470;53.550;9.926;2022-09-02T20:33:52;101423.00;;;18.65;51.94
43824;BME280;29470;53.550;9.926;2022-09-02T20:39:42;101425.47;;;18.62;51.99
43824;BME280;29470;53.550;9.926;2022-09-02T20:44:59;101429.09;;;18.46;52.79
43824;BME280;29470;53.550;9.926;2022-09-02T20:55:49;101427.38;;;18.29;53.06
43824;BME280;29470;53.550;9.926;2022-09-02T21:01:23;101428.22;;;18.28;53.44
43824;BME280;29470;53.550;9.926;2022-09-02T21:06:32;101423.25;;;18.16;53.75
43824;BME280;29470;53.550;9.926;2022-09-02T21:11:42;101428.28;;;18.11;54.08
43824;BME280;29470;53.550;9.926;2022-09-02T21:16:52;101430.97;;;18.13;54.01
43824;BME280;29470;53.550;9.926;2022-09-02T21:22:04;101432.44;;;18.07;54.37
43824;BME280;29470;53.550;9.926;2022-09-02T21:27:20;101440.16;;;18.04;54.92
43824;BME280;29470;53.550;9.926;2022-09-02T21:32:30;101439.13;;;18.01;55.12
43824;BME280;29470;53.550;9.926;2022-09-02T21:37:38;101432.78;;;17.97;55.13
43824;BME280;29470;53.550;9.926;2022-09-02T21:42:53;101436.81;;;17.90;55.32
43824;BME280;29470;53.550;9.926;2022-09-02T21:48:09;101435.03;;;17.89;55.62
43824;BME280;29470;53.550;9.926;2022-09-02T21:53:22;101428.16;;;17.91;55.10
43824;BME280;29470;53.550;9.926;2022-09-02T21:58:48;101441.75;;;17.84;55.49
43824;BME280;29470;53.550;9.926;2022-09-02T22:04:03;101432.31;;;17.88;55.31
43824;BME280;29470;53.550;9.926;2022-09-02T22:09:15;101426.91;;;17.85;54.97
43824;BME280;29470;53.550;9.926;2022-09-02T22:14:25;101423.34;;;17.82;54.44
43824;BME280;29470;53.550;9.926;2022-09-02T22:19:33;101428.75;;;17.69;54.50
43824;BME280;29470;53.550;9.926;2022-09-02T22:24:40;101432.44;;;17.73;54.17
43824;BME280;29470;53.550;9.926;2022-09-02T22:29:46;101426.69;;;17.62;54.29
43824;BME280;29470;53.550;9.926;2022-09-02T22:35:00;101427.50;;;17.61;54.29
43824;BME280;29470;53.550;9.926;2022-09-02T22:40:12;101419.19;;;17.51;54.30
43824;BME280;29470;53.550;9.926;2022-09-02T22:45:19;101421.53;;;17.47;54.73
43824;BME280;29470;53.550;9.926;2022-09-02T22:50:46;101424.44;;;17.35;54.44
43824;BME280;29470;53.550;9.926;2022-09-02T22:56:10;101417.41;;;17.34;54.65
43824;BME280;29470;53.550;9.926;2022-09-02T23:01:18;101418.94;;;17.14;55.03
43824;BME280;29470;53.550;9.926;2022-09-02T23:06:25;101430.47;;;17.01;55.44
43824;BME280;29470;53.550;9.926;2022-09-02T23:11:33;101432.00;;;16.97;55.70
43824;BME280;29470;53.550;9.926;2022-09-02T23:16:52;101427.38;;;16.93;55.63
43824;BME280;29470;53.550;9.926;2022-09-02T23:22:07;101431.13;;;16.82;56.04
43824;BME280;29470;53.550;9.926;2022-09-02T23:27:21;101424.84;;;16.78;56.07
43824;BME280;29470;53.550;9.926;2022-09-02T23:38:07;101417.63;;;16.57;57.05
43824;BME280;29470;53.550;9.926;2022-09-02T23:43:19;101423.66;;;16.56;57.00
43824;BME280;29470;53.550;9.926;2022-09-02T23:48:31;101414.31;;;16.45;57.26
43824;BME280;29470;53.550;9.926;2022-09-02T23:59:27;101403.63;;;16.40;57.76
